Time;durP1;ratioP1;P1;durP2;ratioP2;P2;SDS_P1;SDS_P2;PMS_P1;PMS_P2;Temp;Humidity;BMP_temperature;BMP_pressure;BME280_temperature;BME280_humidity;BME280_pressure;Samples;Min_cycle;Max_cycle;Signal;HPM_P1;HPM_P2
2021/04/01 00:01:55;;;;;;;12.20;6.33;;;;;;;5.77;93.08;100979.69;5062047;28;20353;-80
2021/04/01 00:04:22;;;;;;;9.40;6.60;;;;;;;5.73;93.19;100970.16;5066887;28;20261;-80
2021/04/01 00:06:48;;;;;;;9.40;5.70;;;;;;;5.69;92.96;100960.69;5063695;28;20232;-79
2021/04/01 00:09:14;;;;;;;9.00;7.27;;;;;;;5.64;92.28;100962.44;5065311;28;20962;-80
2021/04/01 00:11:40;;;;;;;8.20;5.87;;;;;;;5.66;93.17;100968.47;5063253;28;20207;-79
2021/04/01 00:14:06;;;;;;;9.10;5.97;;;;;;;5.66;93.51;100963.28;5050061;28;20337;-79
2021/04/01 00:16:33;;;;;;;8.67;5.57;;;;;;;5.62;93.35;100954.66;5063520;28;20207;-81
2021/04/01 00:18:59;;;;;;;8.77;5.80;;;;;;;5.62;94.14;100957.25;5067264;28;20673;-79
2021/04/01 00:21:26;;;;;;;8.67;5.80;;;;;;;5.63;95.00;100947.78;5066870;28;20197;-79
2021/04/01 00:23:52;;;;;;;10.67;6.23;;;;;;;5.61;95.19;100952.06;5065514;28;20337;-80
2021/04/01 00:26:18;;;;;;;8.83;5.80;;;;;;;5.56;94.94;100953.78;5065103;28;20486;-80
2021/04/01 00:28:45;;;;;;;8.50;5.93;;;;;;;5.47;94.00;100942.59;5063831;28;20230;-80
2021/04/01 00:31:11;;;;;;;8.80;6.37;;;;;;;5.45;93.97;100949.50;5049866;28;20344;-79
2021/04/01 00:33:37;;;;;;;8.90;6.23;;;;;;;5.43;94.33;100946.03;5026389;28;20301;-80
2021/04/01 00:36:04;;;;;;;12.30;6.37;;;;;;;5.41;94.20;100941.75;5060696;28;20207;-80
2021/04/01 00:38:31;;;;;;;9.40;6.23;;;;;;;5.47;96.11;100937.44;5065908;28;20724;-79
2021/04/01 00:40:57;;;;;;;9.47;6.10;;;;;;;5.44;95.92;100934.84;5067049;28;20190;-79
2021/04/01 00:43:23;;;;;;;8.67;6.10;;;;;;;5.42;95.89;100931.41;5065125;28;20201;-79
2021/04/01 00:45:49;;;;;;;9.13;5.73;;;;;;;5.36;95.12;100930.53;5062602;28;20728;-79
2021/04/01 00:48:16;;;;;;;12.00;5.90;;;;;;;5.38;95.94;100932.28;5065793;28;20266;-80
2021/04/01 00:50:42;;;;;;;8.33;5.97;;;;;;;5.28;94.32;100927.94;5063629;28;20203;-79
2021/04/01 00:53:08;;;;;;;7.40;5.47;;;;;;;5.28;95.78;100918.47;5065229;28;20198;-80
2021/04/01 00:55:35;;;;;;;8.53;5.93;;;;;;;5.24;95.34;100914.16;5065030;28;20337;-79
2021/04/01 00:58:02;;;;;;;9.97;5.97;;;;;;;5.22;95.33;100908.09;5047694;28;20629;-80
2021/04/01 01:00:29;;;;;;;9.47;5.47;;;;;;;5.19;95.56;100915.88;5062932;28;20599;-79
2021/04/01 01:02:56;;;;;;;8.40;5.90;;;;;;;5.22;96.21;100904.66;5056532;28;20226;-79
2021/04/01 01:05:23;;;;;;;10.27;6.23;;;;;;;5.16;94.76;100908.13;5051083;28;20230;-80
2021/04/01 01:07:50;;;;;;;10.67;6.23;;;;;;;5.11;95.18;100904.66;5055220;28;20225;-79
2021/04/01 01:10:19;;;;;;;11.10;6.10;;;;;;;5.11;95.49;100894.31;5065310;28;20345;-80
2021/04/01 01:12:46;;;;;;;9.27;6.53;;;;;;;5.13;96.67;100898.63;5045045;28;20496;-80
2021/04/01 01:15:13;;;;;;;9.67;5.93;;;;;;;5.08;95.96;100890.03;5064801;28;20316;-80
2021/04/01 01:17:39;;;;;;;11.50;6.17;;;;;;;5.07;96.10;100884.84;5065290;28;20263;-80
2021/04/01 01:20:08;;;;;;;11.60;6.67;;;;;;;5.04;96.34;100888.28;5045714;28;20198;-80
2021/04/01 01:22:36;;;;;;;12.53;6.67;;;;;;;5.00;96.01;100881.41;5064411;28;20194;-79
2021/04/01 01:25:07;;;;;;;9.77;5.97;;;;;;;4.97;96.15;100883.13;5062664;28;20221;-79
2021/04/01 01:27:34;;;;;;;9.97;6.63;;;;;;;5.03;97.64;100877.94;5065461;28;20179;-79
2021/04/01 01:30:01;;;;;;;11.20;6.33;;;;;;;4.96;96.90;100881.38;5061750;28;20301;-80
2021/04/01 01:32:35;;;;;;;7.73;6.07;;;;;;;4.93;97.15;100872.78;5065126;28;20673;-79
2021/04/01 01:35:01;;;;;;;9.20;6.07;;;;;;;4.96;97.92;100871.06;5064393;28;20270;-79
2021/04/01 01:37:27;;;;;;;10.20;6.33;;;;;;;4.90;96.83;100877.94;5062721;28;20278;-80
2021/04/01 01:39:53;;;;;;;10.57;6.43;;;;;;;4.91;97.15;100871.06;5064695;28;20194;-80
2021/04/01 01:42:20;;;;;;;10.20;6.50;;;;;;;4.86;96.74;100865.03;5064415;28;20208;-80
2021/04/01 01:44:46;;;;;;;9.30;6.77;;;;;;;4.86;97.31;100867.59;5047196;28;20325;-80
2021/04/01 01:47:12;;;;;;;11.23;6.13;;;;;;;4.86;97.60;100865.88;5063624;28;20208;-80
2021/04/01 01:49:39;;;;;;;10.97;6.60;;;;;;;4.88;97.80;100866.72;5063515;28;20301;-80
2021/04/01 01:52:06;;;;;;;10.67;6.37;;;;;;;4.84;97.78;100866.75;5063117;28;20918;-80
2021/04/01 01:54:32;;;;;;;11.07;6.27;;;;;;;4.79;96.74;100860.72;5065043;28;20225;-80
2021/04/01 01:56:58;;;;;;;10.17;6.80;;;;;;;4.72;95.56;100863.28;5065087;28;20206;-80
2021/04/01 01:59:25;;;;;;;9.37;6.40;;;;;;;4.83;97.13;100859.84;5061894;28;20195;-80
2021/04/01 02:01:51;;;;;;;9.30;6.03;;;;;;;4.88;98.62;100856.41;5058401;28;20198;-80
2021/04/01 02:04:17;;;;;;;12.97;6.47;;;;;;;4.78;97.48;100859.81;5063149;28;20246;-80
2021/04/01 02:06:44;;;;;;;7.67;5.33;;;;;;;4.72;96.73;100859.84;5065096;28;20261;-80
2021/04/01 02:09:10;;;;;;;10.73;6.33;;;;;;;4.73;97.21;100858.97;5059905;28;20293;-80
2021/04/01 02:11:36;;;;;;;12.73;7.17;;;;;;;4.74;97.81;100861.53;5060802;28;20205;-79
2021/04/01 02:14:03;;;;;;;13.00;6.37;;;;;;;4.72;97.17;100865.00;5063761;28;20775;-81
2021/04/01 02:16:29;;;;;;;10.93;6.47;;;;;;;4.78;98.73;100858.97;5062613;28;20695;-79
2021/04/01 02:18:55;;;;;;;10.30;6.17;;;;;;;4.77;98.73;100852.06;5064578;28;20570;-80
2021/04/01 02:21:23;;;;;;;8.87;5.63;;;;;;;4.76;98.71;100856.38;5062314;28;20203;-80
2021/04/01 02:23:49;;;;;;;12.20;6.77;;;;;;;4.75;98.62;100854.69;5064362;28;20234;-80
2021/04/01 02:26:15;;;;;;;9.53;6.03;;;;;;;4.69;97.74;100855.50;5058836;28;20205;-80
2021/04/01 02:28:41;;;;;;;14.07;6.63;;;;;;;4.69;97.54;100855.50;5065413;28;20276;-79
2021/04/01 02:31:09;;;;;;;11.27;5.87;;;;;;;4.74;98.29;100845.19;5063422;28;20254;-80
2021/04/01 02:33:38;;;;;;;11.13;6.57;;;;;;;4.71;97.94;100845.19;5044574;28;20610;-79
2021/04/01 02:36:06;;;;;;;11.57;6.27;;;;;;;4.72;98.19;100842.59;5062750;28;20206;-80
2021/04/01 02:38:32;;;;;;;8.67;6.07;;;;;;;4.72;98.09;100842.59;5060498;28;20210;-80
2021/04/01 02:40:58;;;;;;;8.43;5.93;;;;;;;4.75;97.77;100841.75;5066994;28;20191;-79
2021/04/01 02:43:30;;;;;;;8.97;6.00;;;;;;;4.73;97.31;100836.59;5059899;28;20401;-80
2021/04/01 02:45:56;;;;;;;11.43;6.27;;;;;;;4.69;97.16;100834.84;5063535;28;20678;-80
2021/04/01 02:48:22;;;;;;;9.77;6.40;;;;;;;4.74;97.78;100840.03;5061447;28;20249;-79
2021/04/01 02:50:49;;;;;;;9.90;7.17;;;;;;;4.77;98.11;100834.88;5064100;28;20214;-80
2021/04/01 02:53:15;;;;;;;10.73;7.03;;;;;;;4.81;97.71;100830.56;5063421;28;20661;-80
2021/04/01 02:55:41;;;;;;;10.37;7.10;;;;;;;4.78;97.10;100836.59;5063101;28;20199;-80
2021/04/01 02:58:07;;;;;;;10.57;6.90;;;;;;;4.78;96.94;100843.47;5064215;28;20191;-80
2021/04/01 03:00:35;;;;;;;11.73;6.93;;;;;;;4.80;97.13;100839.16;5057214;28;20203;-80
2021/04/01 03:03:04;;;;;;;9.77;6.20;;;;;;;4.86;97.62;100842.63;5064478;28;20201;-80
2021/04/01 03:05:30;;;;;;;11.50;6.80;;;;;;;4.88;97.87;100832.28;5060611;28;20198;-80
2021/04/01 03:07:57;;;;;;;10.30;6.90;;;;;;;4.91;98.16;100832.31;5044098;28;20201;-79
2021/04/01 03:10:24;;;;;;;9.80;6.57;;;;;;;4.90;98.01;100830.56;5063131;28;20293;-80
2021/04/01 03:12:50;;;;;;;14.77;7.60;;;;;;;4.91;98.15;100829.72;5062732;28;20199;-80
2021/04/01 03:15:17;;;;;;;9.10;6.63;;;;;;;4.98;98.60;100830.56;5063634;28;20351;-79
2021/04/01 03:17:44;;;;;;;11.40;6.87;;;;;;;4.91;96.78;100834.88;5062670;28;20248;-80
2021/04/01 03:20:11;;;;;;;11.80;7.00;;;;;;;4.93;97.10;100831.44;5062438;28;20716;-80
2021/04/01 03:22:39;;;;;;;13.40;7.07;;;;;;;4.93;96.85;100825.41;5064110;28;20204;-79
2021/04/01 03:25:09;;;;;;;11.00;6.60;;;;;;;4.99;97.34;100825.41;5045019;28;20306;-80
2021/04/01 03:27:36;;;;;;;11.67;6.70;;;;;;;5.00;97.29;100823.69;5062917;28;20199;-80
2021/04/01 03:30:04;;;;;;;13.10;6.60;;;;;;;4.96;96.34;100820.25;5061025;28;20589;-80
2021/04/01 03:32:31;;;;;;;8.90;6.40;;;;;;;4.94;96.80;100821.94;5061218;28;20549;-79
2021/04/01 03:34:57;;;;;;;11.37;7.20;;;;;;;4.94;97.01;100819.38;5061825;28;20257;-80
2021/04/01 03:37:23;;;;;;;10.10;6.73;;;;;;;4.94;96.69;100827.13;5065828;28;20249;-80
2021/04/01 03:39:49;;;;;;;10.67;7.00;;;;;;;4.95;97.30;100820.25;5061771;28;20214;-80
2021/04/01 03:42:16;;;;;;;12.63;7.43;;;;;;;4.95;97.32;100821.09;5046785;28;20301;-80
2021/04/01 03:44:42;;;;;;;11.63;7.77;;;;;;;4.96;97.57;100817.66;5044421;28;20229;-80
2021/04/01 03:47:08;;;;;;;12.53;7.80;;;;;;;4.95;96.92;100815.94;5061451;28;20226;-80
2021/04/01 03:49:34;;;;;;;12.20;7.20;;;;;;;4.94;96.82;100814.19;5062943;28;20289;-80
2021/04/01 03:52:00;;;;;;;15.70;7.07;;;;;;;4.90;95.73;100809.91;5063820;28;20205;-80
2021/04/01 03:54:26;;;;;;;12.10;7.67;;;;;;;4.94;96.79;100811.59;5064222;28;20650;-80
2021/04/01 03:56:52;;;;;;;11.33;6.83;;;;;;;4.92;96.75;100811.63;5059299;28;22198;-80
2021/04/01 03:59:21;;;;;;;10.23;7.23;;;;;;;4.89;95.97;100813.34;5062839;28;20198;-80
2021/04/01 04:02:04;;;;;;;14.43;7.50;;;;;;;4.94;96.55;100809.03;5054194;28;20210;-80
2021/04/01 04:04:41;;;;;;;9.97;6.70;;;;;;;4.96;96.81;100814.19;5062179;28;20806;-80
2021/04/01 04:10:16;;;;;;;13.30;7.73;;;;;;;4.98;97.59;100803.03;5100456;27;20585;-72
2021/04/01 04:12:56;;;;;;;9.73;6.60;;;;;;;5.02;98.00;100803.88;5077409;28;20587;-73
2021/04/01 04:15:23;;;;;;;11.50;7.57;;;;;;;5.02;98.10;100801.28;5079899;28;20217;-73
2021/04/01 04:17:49;;;;;;;13.27;7.77;;;;;;;5.00;97.36;100790.94;5066147;28;20339;-72
2021/04/01 04:20:16;;;;;;;14.13;7.53;;;;;;;5.05;98.04;100789.22;5076815;28;20228;-72
2021/04/01 04:22:42;;;;;;;11.73;6.93;;;;;;;5.05;98.38;100796.97;5088855;28;20224;-72
2021/04/01 04:25:13;;;;;;;12.33;7.47;;;;;;;5.03;98.16;100788.38;5078920;28;20227;-73
2021/04/01 04:27:54;;;;;;;11.73;7.63;;;;;;;5.02;97.58;100791.81;5072188;28;20239;-74
2021/04/01 04:30:21;;;;;;;13.83;8.43;;;;;;;5.03;98.00;100790.97;5080068;28;20228;-73
2021/04/01 04:32:47;;;;;;;13.63;7.43;;;;;;;5.05;98.15;100789.22;5082353;28;20197;-71
2021/04/01 04:35:13;;;;;;;10.70;7.27;;;;;;;5.06;97.98;100795.25;5076383;28;20236;-73
2021/04/01 04:37:39;;;;;;;13.17;7.80;;;;;;;5.06;98.63;100793.50;5076530;28;20744;-73
2021/04/01 04:40:08;;;;;;;13.43;7.70;;;;;;;5.09;98.84;100790.94;5078067;28;20221;-73
2021/04/01 04:42:35;;;;;;;14.87;8.27;;;;;;;5.07;98.01;100787.50;5075031;28;20254;-73
2021/04/01 04:45:02;;;;;;;12.93;7.80;;;;;;;5.08;98.32;100788.34;5084959;28;20205;-74
2021/04/01 04:47:28;;;;;;;15.77;8.27;;;;;;;5.07;97.75;100794.41;5077994;28;20759;-73
2021/04/01 04:49:54;;;;;;;11.23;7.40;;;;;;;5.07;97.68;100791.81;5078654;28;20319;-73
2021/04/01 04:52:21;;;;;;;13.23;8.07;;;;;;;5.08;97.55;100786.66;5077773;28;20236;-73
2021/04/01 04:54:47;;;;;;;13.40;7.83;;;;;;;5.15;98.39;100787.47;5081105;28;20232;-74
2021/04/01 04:57:17;;;;;;;11.43;8.23;;;;;;;5.16;97.98;100788.34;5074796;28;20225;-73
2021/04/01 04:59:59;;;;;;;14.47;7.83;;;;;;;5.18;98.30;100778.88;5075038;28;20268;-73
2021/04/01 05:05:10;;;;;;;13.87;8.77;;;;;;;5.23;98.30;100777.16;5077626;28;20414;-74
2021/04/01 05:07:36;;;;;;;14.23;8.67;;;;;;;5.24;97.62;100778.84;5081007;28;20198;-73
2021/04/01 05:10:03;;;;;;;15.30;8.37;;;;;;;5.28;97.80;100783.16;5077543;28;20210;-70
2021/04/01 05:12:29;;;;;;;17.47;8.83;;;;;;;5.31;97.93;100781.44;5076779;28;20194;-73
2021/04/01 05:14:56;;;;;;;17.23;9.50;;;;;;;5.35;97.72;100782.28;5079371;28;20283;-73
2021/04/01 05:17:22;;;;;;;13.93;8.57;;;;;;;5.41;98.19;100787.44;5079877;28;20557;-74
2021/04/01 05:19:51;;;;;;;13.60;8.70;;;;;;;5.43;97.50;100787.44;5078912;28;20218;-73
2021/04/01 05:22:20;;;;;;;13.73;8.43;;;;;;;5.46;96.74;100795.19;5065862;28;20200;-74
2021/04/01 05:24:46;;;;;;;14.67;8.53;;;;;;;5.49;96.37;100795.19;5058323;28;20559;-74
2021/04/01 05:27:19;;;;;;;17.53;7.63;;;;;;;5.56;96.77;100793.44;5060855;28;20202;-73
2021/04/01 05:29:58;;;;;;;17.70;9.27;;;;;;;5.62;96.90;100791.69;5070781;28;20227;-72
2021/04/01 05:32:26;;;;;;;12.37;8.13;;;;;;;5.67;95.84;100797.72;5063176;28;20195;-74
2021/04/01 05:34:53;;;;;;;14.70;8.97;;;;;;;5.75;95.94;100804.59;5067606;28;20191;-73
2021/04/01 05:37:20;;;;;;;17.23;9.17;;;;;;;5.78;95.88;100805.44;5062633;28;20546;-73
2021/04/01 05:39:47;;;;;;;13.60;8.10;;;;;;;5.82;95.29;100795.94;5069775;28;20218;-74
2021/04/01 05:42:16;;;;;;;15.53;8.87;;;;;;;5.90;95.54;100806.28;5059779;28;20215;-72
2021/04/01 05:44:44;;;;;;;14.53;8.80;;;;;;;5.97;96.73;100801.09;5059749;28;20199;-74
2021/04/01 05:47:15;;;;;;;14.90;9.63;;;;;;;6.02;96.13;100801.06;5072526;28;20203;-72
2021/04/01 05:49:50;;;;;;;16.73;9.57;;;;;;;6.07;95.76;100796.75;5045936;28;20235;-73
2021/04/01 05:58:26;;;;;;;16.97;10.30;;;;;;;6.28;94.65;100800.94;5018912;28;20616;-73
2021/04/01 06:01:11;;;;;;;14.80;9.20;;;;;;;6.35;94.18;100793.97;5018192;28;20555;-72
2021/04/01 06:03:58;;;;;;;16.13;9.67;;;;;;;6.44;93.69;100804.31;5022456;28;20219;-73
2021/04/01 06:06:29;;;;;;;15.60;9.67;;;;;;;6.55;92.78;100807.69;5020155;28;20227;-74
2021/04/01 06:09:00;;;;;;;15.07;10.03;;;;;;;6.68;92.76;100808.44;5028847;28;20224;-73
2021/04/01 06:11:26;;;;;;;18.17;10.33;;;;;;;6.81;92.29;100810.09;5026458;28;20220;-73
2021/04/01 06:14:07;;;;;;;17.20;10.87;;;;;;;6.96;91.72;100813.41;5028143;28;20195;-72
2021/04/01 06:16:36;;;;;;;15.40;10.07;;;;;;;7.09;91.42;100809.88;5023451;28;20234;-73
2021/04/01 06:19:05;;;;;;;16.63;9.53;;;;;;;7.22;91.21;100809.75;5024552;28;20204;-73
2021/04/01 06:21:38;;;;;;;21.53;10.67;;;;;;;7.34;90.64;100810.47;5022479;28;20211;-74
2021/04/01 06:24:21;;;;;;;20.47;10.97;;;;;;;7.49;90.57;100809.50;5021054;28;20202;-73
2021/04/01 06:26:52;;;;;;;14.13;9.87;;;;;;;7.63;90.50;100809.31;5019442;28;20204;-72
2021/04/01 06:29:20;;;;;;;16.20;10.13;;;;;;;7.76;90.59;100808.31;5023843;28;20371;-72
2021/04/01 06:31:49;;;;;;;16.80;9.57;;;;;;;7.92;90.39;100808.13;5019235;28;20201;-74
2021/04/01 06:34:16;;;;;;;17.87;9.77;;;;;;;8.04;89.35;100812.28;5021344;28;20212;-72
2021/04/01 06:36:50;;;;;;;16.97;9.80;;;;;;;8.12;88.77;100808.72;5022944;28;20602;-73
2021/04/01 06:39:19;;;;;;;16.40;10.03;;;;;;;8.23;87.95;100813.81;5019112;28;20222;-74
2021/04/01 06:41:46;;;;;;;16.93;10.43;;;;;;;8.33;87.37;100817.13;5019958;28;20204;-72
2021/04/01 06:44:28;;;;;;;17.07;9.43;;;;;;;8.48;87.20;100819.53;5026469;28;20216;-73
2021/04/01 06:47:10;;;;;;;14.57;9.63;;;;;;;8.63;87.75;100818.44;5019918;28;20565;-73
2021/04/01 06:52:33;;;;;;;13.33;8.97;;;;;;;8.94;84.33;100823.19;5024005;28;20201;-73
2021/04/01 06:55:08;;;;;;;14.93;8.90;;;;;;;9.14;85.41;100824.59;5016576;28;20197;-73
2021/04/01 06:57:49;;;;;;;16.73;10.37;;;;;;;9.26;83.99;100832.19;5036446;28;20222;-73
2021/04/01 07:00:25;;;;;;;15.40;9.63;;;;;;;9.37;83.25;100832.84;5028594;28;20219;-73
2021/04/01 07:02:54;;;;;;;14.33;9.07;;;;;;;9.47;82.47;100831.78;5019209;28;20665;-71
2021/04/01 07:05:25;;;;;;;20.37;12.23;;;;;;;9.59;81.61;100829.88;5025416;28;20677;-73
2021/04/01 07:07:57;;;;;;;19.20;11.90;;;;;;;9.73;81.31;100819.19;5021898;28;20257;-74
2021/04/01 07:10:35;;;;;;;17.13;10.03;;;;;;;9.85;81.98;100821.56;5022562;28;20222;-74
2021/04/01 07:13:08;;;;;;;19.23;10.20;;;;;;;10.01;81.27;100828.16;5018273;28;20203;-74
2021/04/01 07:15:40;;;;;;;14.83;9.23;;;;;;;10.18;81.85;100832.16;5026992;28;20753;-73
2021/04/01 07:18:16;;;;;;;13.80;9.83;;;;;;;10.30;79.92;100831.03;5024564;28;20201;-74
2021/04/01 07:20:52;;;;;;;16.10;9.43;;;;;;;10.43;79.16;100835.13;5020437;28;20298;-74
2021/04/01 07:23:48;;;;;;;17.67;9.53;;;;;;;10.57;79.52;100830.47;5026024;28;20680;-73
2021/04/01 07:46:18;;;;;;;19.50;9.57;;;;;;;11.27;73.33;100840.06;5023498;28;20197;-73
2021/04/01 07:48:47;;;;;;;15.00;9.53;;;;;;;11.35;74.01;100837.28;5018785;28;20216;-73
2021/04/01 07:51:28;;;;;;;15.20;9.63;;;;;;;11.43;73.24;100843.13;5019358;28;20239;-74
2021/04/01 07:53:55;;;;;;;17.97;9.63;;;;;;;11.55;72.85;100847.19;5017339;28;20683;-73
2021/04/01 07:56:28;;;;;;;13.67;8.80;;;;;;;11.69;73.95;100847.66;5023830;28;20333;-73
2021/04/01 07:59:19;;;;;;;19.80;9.93;;;;;;;11.81;73.56;100850.84;5020757;28;20236;-73
2021/04/01 08:01:53;;;;;;;17.63;10.13;;;;;;;11.92;72.43;100848.81;5020442;28;20200;-73
2021/04/01 08:04:20;;;;;;;14.50;9.77;;;;;;;12.08;70.48;100852.72;5017927;28;20247;-74
2021/04/01 08:06:46;;;;;;;17.17;9.57;;;;;;;12.21;71.31;100860.22;5018243;28;20210;-72
2021/04/01 08:09:18;;;;;;;16.33;9.20;;;;;;;12.33;71.38;100849.41;5017008;28;20250;-73
2021/04/01 08:11:47;;;;;;;18.03;10.47;;;;;;;12.43;70.00;100855.19;5021076;28;20708;-74
2021/04/01 08:14:16;;;;;;;15.13;9.60;;;;;;;12.53;71.09;100861.00;5017390;28;20205;-72
2021/04/01 08:16:46;;;;;;;17.30;10.27;;;;;;;12.63;68.21;100852.84;5019464;28;20193;-74
2021/04/01 08:19:15;;;;;;;17.70;9.97;;;;;;;12.73;68.20;100845.53;5024579;28;20230;-73
2021/04/01 08:21:43;;;;;;;16.90;10.73;;;;;;;12.87;68.12;100847.72;5018182;28;20290;-74
2021/04/01 08:24:17;;;;;;;22.23;10.40;;;;;;;12.94;67.29;100854.47;5025918;28;20199;-74
2021/04/01 08:26:58;;;;;;;17.80;10.03;;;;;;;13.13;67.64;100853.88;5014713;28;20582;-74
2021/04/01 08:30:41;;;;;;;17.80;11.17;;;;;;;13.27;66.67;100855.13;5020102;28;20597;-75
2021/04/01 08:35:27;;;;;;;18.50;10.90;;;;;;;13.54;63.43;100862.13;5022179;28;20277;-72
2021/04/01 08:38:05;;;;;;;20.57;11.53;;;;;;;13.65;63.99;100860.00;5016377;28;20248;-74
2021/04/01 08:40:32;;;;;;;20.53;11.57;;;;;;;13.87;64.48;100859.22;5020564;28;20730;-71
2021/04/01 08:43:42;;;;;;;22.10;12.10;;;;;;;14.02;63.05;100863.91;5023836;28;20203;-73
2021/04/01 08:46:33;;;;;;;27.80;14.80;;;;;;;14.34;62.97;100873.19;5017216;28;20668;-73
2021/04/01 08:49:12;;;;;;;23.43;12.83;;;;;;;14.50;61.91;100870.84;5049006;28;20680;-74
2021/04/01 08:51:53;;;;;;;40.97;23.07;;;;;;;14.72;60.72;100863.03;5018516;28;20215;-73
2021/04/01 08:54:27;;;;;;;28.53;15.43;;;;;;;14.94;58.15;100860.38;5013022;28;20208;-73
2021/04/01 08:57:10;;;;;;;24.40;12.83;;;;;;;15.09;55.33;100855.41;5024772;28;20672;-74
2021/04/01 08:59:46;;;;;;;27.80;13.93;;;;;;;15.11;55.11;100846.56;5020056;28;20225;-74
2021/04/01 09:02:18;;;;;;;28.27;13.80;;;;;;;15.27;54.76;100843.31;5021567;28;20690;-72
2021/04/01 09:04:49;;;;;;;24.00;13.73;;;;;;;15.43;56.39;100846.13;5028384;28;20205;-74
2021/04/01 09:07:24;;;;;;;21.47;13.00;;;;;;;15.57;57.33;100835.88;5020653;28;20626;-72
2021/04/01 09:09:52;;;;;;;25.27;13.20;;;;;;;15.62;55.69;100835.66;5022982;28;20297;-74
2021/04/01 09:12:23;;;;;;;21.87;12.00;;;;;;;15.69;56.46;100840.59;5022074;28;20234;-74
2021/04/01 09:15:00;;;;;;;21.73;11.93;;;;;;;15.66;55.30;100840.72;5023887;28;20232;-71
2021/04/01 09:17:32;;;;;;;22.13;11.83;;;;;;;15.75;56.59;100833.41;5018734;28;20225;-72
2021/04/01 09:19:58;;;;;;;21.40;12.03;;;;;;;15.80;56.54;100844.56;5022340;28;20233;-74
2021/04/01 09:22:26;;;;;;;24.33;13.50;;;;;;;15.91;54.24;100850.19;5022375;28;20318;-74
2021/04/01 09:24:56;;;;;;;25.27;14.47;;;;;;;16.08;55.10;100845.00;5016636;28;20220;-74
2021/04/01 09:27:22;;;;;;;22.07;12.53;;;;;;;16.15;53.70;100852.63;5025403;28;20204;-74
2021/04/01 09:29:59;;;;;;;23.40;11.97;;;;;;;16.20;53.47;100853.25;5021838;28;20223;-75
2021/04/01 09:32:27;;;;;;;26.03;13.80;;;;;;;16.29;52.47;100858.13;5019116;28;20207;-73
2021/04/01 09:34:59;;;;;;;21.83;11.40;;;;;;;16.40;53.41;100852.34;5020736;28;20207;-74
2021/04/01 09:37:26;;;;;;;21.37;11.80;;;;;;;16.46;54.10;100852.94;5020271;28;20192;-74
2021/04/01 09:39:54;;;;;;;25.77;12.53;;;;;;;16.46;52.36;100857.31;5012807;28;20303;-72
2021/04/01 09:42:20;;;;;;;23.57;13.30;;;;;;;16.49;53.49;100848.44;5024569;28;20467;-72
2021/04/01 09:44:52;;;;;;;21.70;12.07;;;;;;;16.57;52.60;100854.16;5023829;28;20706;-74
2021/04/01 09:47:27;;;;;;;21.20;12.23;;;;;;;16.62;52.01;100858.31;5018876;28;20258;-73
2021/04/01 09:50:01;;;;;;;21.90;11.57;;;;;;;16.68;51.60;100857.16;5023703;28;20587;-75
2021/04/01 09:52:28;;;;;;;24.13;12.87;;;;;;;16.74;51.87;100859.47;5024553;28;20214;-73
2021/04/01 09:54:57;;;;;;;24.53;13.37;;;;;;;16.77;51.44;100855.88;5023326;28;20212;-73
2021/04/01 09:57:38;;;;;;;23.13;12.23;;;;;;;16.90;51.76;100849.09;5023788;28;20204;-73
2021/04/01 10:00:16;;;;;;;25.03;12.43;;;;;;;16.90;51.61;100845.59;5024879;28;20234;-74
2021/04/01 10:03:03;;;;;;;23.73;13.00;;;;;;;17.04;51.07;100861.56;5012809;28;20195;-72
2021/04/01 10:05:35;;;;;;;26.13;14.00;;;;;;;17.16;52.00;100858.34;5021480;28;20613;-74
2021/04/01 10:08:04;;;;;;;28.40;13.63;;;;;;;17.33;50.69;100868.03;5018696;28;20707;-74
2021/04/01 10:10:36;;;;;;;23.43;12.40;;;;;;;17.62;50.81;100868.31;5021538;28;20588;-74
2021/04/01 10:13:02;;;;;;;22.43;12.17;;;;;;;17.70;50.33;100865.31;5025234;28;20283;-72
2021/04/01 10:15:30;;;;;;;24.30;13.67;;;;;;;17.76;45.25;100871.13;5021000;28;20236;-73
2021/04/01 10:17:59;;;;;;;25.13;14.00;;;;;;;17.90;46.93;100859.84;5025438;28;20234;-73
2021/04/01 10:20:26;;;;;;;24.60;13.50;;;;;;;17.98;44.88;100864.75;5022266;28;20227;-73
2021/04/01 10:23:04;;;;;;;28.13;13.60;;;;;;;17.92;44.75;100865.91;5024955;28;20227;-73
2021/04/01 10:25:37;;;;;;;27.83;14.00;;;;;;;17.89;42.57;100867.88;5025154;28;20668;-74
2021/04/01 10:28:07;;;;;;;27.87;14.47;;;;;;;17.95;42.57;100865.72;5023487;28;20199;-73
2021/04/01 10:30:35;;;;;;;25.07;12.97;;;;;;;17.93;42.81;100862.31;5022147;28;20455;-73
2021/04/01 10:33:07;;;;;;;29.73;14.63;;;;;;;17.92;43.71;100858.00;5016261;28;20271;-74
2021/04/01 10:35:36;;;;;;;25.47;13.67;;;;;;;17.82;43.42;100856.75;5022416;28;20569;-74
2021/04/01 10:38:04;;;;;;;27.13;14.03;;;;;;;17.77;44.14;100854.34;5022559;28;20314;-73
2021/04/01 10:40:33;;;;;;;26.90;12.40;;;;;;;17.78;43.06;100853.44;5022284;28;20630;-73
2021/04/01 10:43:04;;;;;;;27.63;13.97;;;;;;;17.80;44.00;100848.06;5019572;28;20200;-73
2021/04/01 10:45:34;;;;;;;25.00;12.70;;;;;;;17.75;43.96;100843.03;5023768;28;20284;-73
2021/04/01 10:48:21;;;;;;;26.30;13.20;;;;;;;17.73;42.32;100842.28;5021439;28;20208;-74
2021/04/01 10:50:48;;;;;;;30.83;14.43;;;;;;;17.84;43.00;100840.84;5020305;28;20711;-74
2021/04/01 10:53:20;;;;;;;24.97;12.03;;;;;;;17.89;42.71;100846.78;5024163;28;20249;-74
2021/04/01 10:55:46;;;;;;;26.47;13.53;;;;;;;17.92;41.89;100844.81;5021192;28;20207;-73
2021/04/01 10:58:13;;;;;;;28.03;13.57;;;;;;;18.05;42.56;100836.25;5020021;28;20195;-72
2021/04/01 11:00:40;;;;;;;25.73;13.27;;;;;;;18.18;41.01;100842.53;5011432;28;20219;-73
2021/04/01 11:03:09;;;;;;;24.13;12.83;;;;;;;18.29;40.25;100834.03;5020361;28;20602;-73
2021/04/01 11:05:37;;;;;;;27.90;13.00;;;;;;;18.49;41.54;100832.94;5017265;28;20200;-73
2021/04/01 11:08:06;;;;;;;26.97;13.50;;;;;;;18.47;38.93;100830.38;5014461;28;20226;-72
2021/04/01 11:10:34;;;;;;;26.50;13.43;;;;;;;18.48;38.89;100833.88;5015921;28;20265;-72
2021/04/01 11:13:02;;;;;;;24.90;13.33;;;;;;;18.46;38.71;100828.66;5015653;28;20203;-71
2021/04/01 11:15:30;;;;;;;27.03;12.90;;;;;;;18.54;39.71;100822.97;5027006;28;20183;-72
2021/04/01 11:18:00;;;;;;;25.17;13.43;;;;;;;18.55;38.78;100817.59;5017928;28;20238;-72
2021/04/01 11:20:30;;;;;;;26.80;13.07;;;;;;;18.64;40.01;100820.66;5020760;28;20219;-72
2021/04/01 11:23:07;;;;;;;27.17;13.97;;;;;;;18.72;43.62;100813.16;5024571;28;20254;-71
2021/04/01 11:25:35;;;;;;;24.50;12.70;;;;;;;18.72;41.66;100819.28;5022335;28;20199;-72
2021/04/01 11:28:02;;;;;;;22.07;11.77;;;;;;;18.65;41.81;100817.09;5018345;28;20211;-72
2021/04/01 11:30:48;;;;;;;22.60;11.63;;;;;;;18.74;41.13;100820.03;5019947;28;20587;-72
2021/04/01 11:33:16;;;;;;;20.87;10.93;;;;;;;18.92;42.95;100809.38;5022675;28;20204;-71
2021/04/01 11:35:44;;;;;;;22.83;11.60;;;;;;;18.89;39.33;100818.34;5021487;28;20226;-71
2021/04/01 11:38:20;;;;;;;25.60;13.83;;;;;;;18.85;39.77;100813.31;5025873;28;20195;-71
2021/04/01 11:40:55;;;;;;;25.10;13.10;;;;;;;18.95;39.24;100813.66;5016872;28;20227;-72
2021/04/01 11:43:25;;;;;;;21.07;11.87;;;;;;;19.08;40.66;100806.69;5023519;28;20571;-72
2021/04/01 11:45:51;;;;;;;21.60;11.90;;;;;;;19.18;39.93;100799.94;5020000;28;20204;-72
2021/04/01 11:48:18;;;;;;;22.90;12.07;;;;;;;19.43;38.28;100807.22;5020346;28;20686;-71
2021/04/01 11:50:44;;;;;;;22.90;12.20;;;;;;;19.51;39.38;100797.97;5024562;28;20595;-72
2021/04/01 11:53:10;;;;;;;24.53;12.23;;;;;;;19.65;40.29;100790.06;5015560;28;20743;-72
2021/04/01 11:55:36;;;;;;;20.20;11.40;;;;;;;19.52;39.89;100782.03;5015085;28;20240;-72
2021/04/01 11:58:12;;;;;;;21.67;11.77;;;;;;;19.44;39.71;100782.50;5020441;28;20207;-72
2021/04/01 12:00:38;;;;;;;20.30;10.57;;;;;;;19.39;39.76;100786.38;5011046;28;20258;-72
2021/04/01 12:03:07;;;;;;;19.17;10.20;;;;;;;19.34;42.34;100784.00;5012645;28;20206;-72
2021/04/01 12:05:38;;;;;;;34.10;17.53;;;;;;;19.23;41.24;100786.44;5020219;28;20350;-70
2021/04/01 12:08:04;;;;;;;26.53;13.47;;;;;;;19.21;42.68;100783.91;5021257;28;20618;-71
2021/04/01 12:10:30;;;;;;;23.93;12.20;;;;;;;19.20;42.81;100778.69;5016378;28;21019;-72